Flight Track Log - Related Links

Times and Time Zones

All times are in EDT time to prevent confusion due to time zone crossing. See the EJA929 flight status page for this flight to view local times or setup timezone preferences in your user account.

Time Position Orientation Groundspeed Altitude Reporting Facility
EDT Latitude Longitude Course Direction KTS MPH feet Rate Location/Type
Thu 03:00:58 PM 39.9333 -105.1333 360° North 193 222 7,100  Level Denver TRACON
Thu 03:01:58 PM 40.0000 -105.1333 360° North 247 284 7,900 800 Climbing Denver TRACON
Thu 03:02:58 PM 40.0667 -105.1500 349° North 244 281 8,700 1,900 Climbing Denver TRACON
Thu 03:03:58 PM 40.0667 -105.2167 270° West 257 296 11,700 2,900 Climbing Denver TRACON
Thu 03:04:58 PM 40.0333 -105.3000 242° Southwest 251 289 14,500 2,087 Climbing Denver TRACON
Thu 03:06:16 PM 39.9514 -105.3633 211° Southwest 302 348 16,500 1,579 Climbing Denver Center
Thu 03:07:30 PM 39.8561 -105.3797 188° South 347 399 18,500 2,206 Climbing Denver Center
Thu 03:08:32 PM 39.7739 -105.4786 223° Southwest 342 394 21,500 1,971 Climbing Denver Center
Thu 03:09:47 PM 39.7253 -105.6019 243° Southwest 359 413 23,000 662 Climbing Denver Center
Thu 03:10:48 PM 39.6892 -105.7431 252° West 415 478 23,000 1,016 Level Denver Center
Thu 03:11:51 PM 39.6703 -105.9292 263° West 429 494 25,100 1,872 Climbing Denver Center
Thu 03:12:53 PM 39.6525 -106.0853 262° West 437 503 26,900 1,694 Climbing Denver Center
Thu 03:13:55 PM 39.6333 -106.2528 262° West 440 506 28,600 1,500 Climbing Denver Center
Thu 03:14:57 PM 39.5975 -106.4064 253° West 448 516 30,000 1,597 Climbing Denver Center
Thu 03:15:59 PM 39.5453 -106.5678 247° West 460 529 31,900 1,935 Climbing Denver Center
Thu 03:17:01 PM 39.4903 -106.7350 247° West 454 522 34,000 1,016 Climbing Denver Center
Thu 03:18:03 PM 39.4406 -106.8869 247° West 477 549 34,000  Level Denver Center
Thu 03:19:06 PM 39.3947 -107.0775 253° West 494 568 34,000 350 Level Denver Center
Thu 03:20:20 PM 39.3514 -107.2433 251° West 505 581 34,800 971 Climbing Denver Center
Thu 03:21:22 PM 39.2978 -107.4553 252° West 489 563 36,200 1,161 Climbing Denver Center
Thu 03:22:24 PM 39.2581 -107.6122 252° West 481 554 37,200 1,113 Climbing Denver Center
Thu 03:23:26 PM 39.2097 -107.7950 251° West 479 551 38,500 1,113 Climbing Denver Center
Thu 03:24:28 PM 39.1711 -107.9475 252° West 469 540 39,500 1,065 Climbing Denver Center
Thu 03:25:30 PM 39.1264 -108.1197 252° West 453 521 40,700 1,113 Climbing Denver Center
Thu 03:26:32 PM 39.0883 -108.2653 251° West 447 514 41,800 1,104 Climbing Denver Center
Thu 03:27:35 PM 39.0425 -108.4367 251° West 450 518 43,000 576 Climbing Denver Center
Thu 03:28:37 PM 39.0042 -108.5839 252° West 453 521 43,000  Level Denver Center
Thu 03:29:39 PM 38.9583 -108.7522 251° West 446 513 43,000  Level Denver Center
Thu 03:30:41 PM 38.9189 -108.8989 251° West 452 520 43,000  Level Denver Center
Thu 03:31:43 PM 38.8725 -109.0706 251° West 455 524 43,000  Level Denver Center
Thu 03:32:45 PM 38.8325 -109.2172 251° West 456 525 43,000  Level Denver Center
Thu 03:33:47 PM 38.7928 -109.3639 251° West 457 526 43,000  Level Denver Center
Thu 03:34:49 PM 38.7469 -109.5350 251° West 456 525 43,000  Level Denver Center
Thu 03:36:03 PM 38.7039 -109.6775 249° West 450 518 43,000  Level Denver Center
Thu 03:37:06 PM 38.6508 -109.8736 251° West 455 524 43,000  Level Denver Center
Thu 03:38:08 PM 38.6014 -110.0442 250° West 457 526 43,000  Level Denver Center
Thu 03:38:55 PM 38.5697 -110.1703 252° West 461 531 43,000  Level Salt Lake Center
Thu 03:39:57 PM 38.5281 -110.3158 250° West 459 528 43,000  Level Salt Lake Center
Thu 03:40:59 PM 38.4789 -110.4872 250° West 461 531 43,000  Level Salt Lake Center
Thu 03:42:01 PM 38.4375 -110.6344 250° West 460 529 43,000  Level Salt Lake Center
Thu 03:43:04 PM 38.3758 -110.7992 245° Southwest 464 534 43,000  Level Salt Lake Center
Thu 03:43:43 PM 38.3539 -110.8425 237° Southwest 464 534 43,000  Level Denver Center
Thu 03:44:45 PM 38.2794 -111.0081 240° Southwest 460 529 43,000  Level Denver Center
Thu 03:45:47 PM 38.2039 -111.1800 241° Southwest 463 533 43,000  Level Denver Center
Thu 03:46:49 PM 38.1386 -111.3197 239° Southwest 461 531 43,000  Level Denver Center
Thu 03:48:14 PM 38.0522 -111.5183 241° Southwest 458 527 43,000  Level Salt Lake Center
Thu 03:49:16 PM 37.9872 -111.6567 239° Southwest 457 526 43,000  Level Salt Lake Center
Thu 03:50:18 PM 37.9231 -111.7958 240° Southwest 458 527 43,000  Level Salt Lake Center
Thu 03:51:20 PM 37.8589 -111.9331 239° Southwest 454 522 43,000  Level Salt Lake Center
Thu 03:52:22 PM 37.7828 -112.1011 240° Southwest 459 528 43,000  Level Salt Lake Center
Thu 03:53:24 PM 37.7192 -112.2386 240° Southwest 456 525 43,000  Level Salt Lake Center
Thu 03:54:26 PM 37.6486 -112.3708 236° Southwest 453 521 43,000  Level Salt Lake Center
Thu 03:55:28 PM 37.5661 -112.4953 230° Southwest 457 526 43,000  Level Salt Lake Center
Thu 03:56:30 PM 37.4839 -112.6228 231° Southwest 461 531 43,000  Level Salt Lake Center
Thu 03:57:32 PM 37.3989 -112.7511 230° Southwest 466 536 43,000  Level Salt Lake Center
Thu 03:58:34 PM 37.3172 -112.8800 231° Southwest 466 536 43,000  Level Salt Lake Center
Thu 03:59:36 PM 37.2364 -113.0069 231° Southwest 464 534 43,000  Level Salt Lake Center
Thu 04:00:39 PM 37.1381 -113.1586 231° Southwest 465 535 43,000  Level Salt Lake Center
Thu 04:01:41 PM 37.0561 -113.2844 231° Southwest 465 535 43,000  Level Salt Lake Center
Thu 04:02:43 PM 36.9742 -113.4097 231° Southwest 465 535 43,000  Level Salt Lake Center
Thu 04:03:45 PM 36.8914 -113.5353 231° Southwest 466 536 43,000  Level Salt Lake Center
Thu 04:04:47 PM 36.8092 -113.6597 230° Southwest 465 535 43,000  Level Salt Lake Center
Thu 04:05:49 PM 36.7264 -113.7844 230° Southwest 466 536 43,000  Level Salt Lake Center
Thu 04:07:05 PM 36.6094 -113.9581 230° Southwest 468 539 43,000  Level Los Angeles Center
Thu 04:08:07 PM 36.5256 -114.0828 230° Southwest 471 542 43,000  Level Los Angeles Center
Thu 04:09:09 PM 36.4406 -114.2075 230° Southwest 468 539 43,000  Level Los Angeles Center
Thu 04:10:11 PM 36.3561 -114.3328 230° Southwest 473 544 43,000  Level Los Angeles Center
Thu 04:11:13 PM 36.2717 -114.4556 230° Southwest 469 540 43,000  Level Los Angeles Center
Thu 04:12:15 PM 36.1869 -114.5808 230° Southwest 472 543 43,000  Level Los Angeles Center
Thu 04:13:30 PM 36.0853 -114.7303 230° Southwest 471 542 43,000  Level Los Angeles Center
Thu 04:14:32 PM 35.9822 -114.8781 229° Southwest 471 542 43,000  Level Los Angeles Center
Thu 04:15:34 PM 35.8956 -114.9986 228° Southwest 469 540 43,000  Level Los Angeles Center
Thu 04:16:36 PM 35.8061 -115.1183 227° Southwest 471 542 43,000  Level Los Angeles Center
Thu 04:17:38 PM 35.7178 -115.2400 228° Southwest 475 547 43,000  Level Los Angeles Center
Thu 04:18:41 PM 35.6286 -115.3606 228° Southwest 475 547 43,000  Level Los Angeles Center
Thu 04:19:43 PM 35.5411 -115.4792 228° Southwest 469 540 43,000 -823 Level Los Angeles Center
Thu 04:20:45 PM 35.4583 -115.5900 227° Southwest 425 489 41,300 -2,177 Descending Los Angeles Center
Thu 04:21:47 PM 35.3711 -115.7069 228° Southwest 416 479 38,500 -1,597 Descending Los Angeles Center
Thu 04:22:49 PM 35.2850 -115.8206 227° Southwest 420 483 38,000 -242 Descending Los Angeles Center
Thu 04:23:51 PM 35.2050 -115.9253 227° Southwest 421 484 38,000  Level Los Angeles Center
Thu 04:24:53 PM 35.1261 -116.0319 228° Southwest 423 487 38,000  Level Los Angeles Center
Thu 04:25:56 PM 35.0467 -116.1356 227° Southwest 420 483 38,000 -480 Level Los Angeles Center
Thu 04:26:58 PM 34.9667 -116.2403 227° Southwest 420 483 37,000 -1,161 Descending Los Angeles Center
Thu 04:28:00 PM 34.8856 -116.3481 227° Southwest 427 491 35,600 -1,548 Descending Los Angeles Center
Thu 04:29:02 PM 34.7822 -116.4772 226° Southwest 440 506 33,800 -2,032 Descending Los Angeles Center
Thu 04:30:04 PM 34.6825 -116.5697 217° Southwest 448 516 31,400 -2,226 Descending Los Angeles Center
Thu 04:31:06 PM 34.5853 -116.6600 217° Southwest 441 507 29,200 -2,064 Descending Los Angeles Center
Thu 04:32:09 PM 34.4919 -116.7469 218° Southwest 428 493 27,100 -1,920 Descending Los Angeles Center
Thu 04:33:11 PM 34.3992 -116.8328 217° Southwest 420 483 25,200 -1,790 Descending Los Angeles Center
Thu 04:34:13 PM 34.3119 -116.9147 218° Southwest 403 464 23,400 -1,790 Descending Los Angeles Center
Thu 04:35:15 PM 34.2258 -116.9947 218° Southwest 393 452 21,500 -1,984 Descending Los Angeles Center
Thu 04:36:17 PM 34.1242 -117.0900 218° Southwest 385 443 19,300 -1,355 Descending Los Angeles Center
Thu 04:37:19 PM 34.0742 -117.1803 236° Southwest 337 388 18,700 -1,776 Descending Los Angeles Center
Thu 04:38:22 PM 34.0431 -117.2772 249° West 315 362 15,600 -2,688 Descending Los Angeles Center
Thu 04:39:24 PM 34.0353 -117.3769 265° West 302 348 13,100 -2,081 Descending Los Angeles Center
Thu 04:40:26 PM 34.0239 -117.4953 263° West 298 343 11,300 -1,500 Descending Los Angeles Center
Thu 04:41:28 PM 34.0150 -117.5919 264° West 294 338 10,000 -629 Descending Los Angeles Center
Thu 04:42:30 PM 34.0067 -117.6883 264° West 291 335 10,000 -581 Level Los Angeles Center
Thu 04:43:32 PM 33.9978 -117.7842 264° West 290 334 8,800 -1,317 Descending Los Angeles Center
Thu 04:44:33 PM 33.9833 -117.8833 260° West 261 300 7,300 -850 Descending Southern California TRACON
Thu 04:45:39 PM 33.9833 -117.9833 270° West 243 280 7,000 -619 Descending Southern California TRACON
Thu 04:46:39 PM 33.9667 -118.0667 256° West 233 268 6,000 -950 Descending Southern California TRACON
Thu 04:47:39 PM 33.9667 -118.1333 270° West 199 229 5,100 -1,190 Descending Southern California TRACON
Thu 04:48:40 PM 33.9500 -118.2000 253° West 201 231 3,600 -1,438 Descending Southern California TRACON
Thu 04:49:40 PM 33.9500 -118.2500 270° West 185 213 2,200 -1,105 Descending Southern California TRACON
Thu 04:50:34 PM 33.9500 -118.3000 270° West 178 205 1,500 -789 Descending Southern California TRACON
Thu 04:51:34 PM 33.9333 -118.3500 248° West 147 169 700 -526 Descending Southern California TRACON
Thu 04:52:51 PM 33.9867 -118.4083 318° Northwest 186 214 300 -312 Descending Los Angeles Center

Login

Don't have an account? Register now (free) for customized features, flight alerts, and more!